Time;durP1;ratioP1;P1;durP2;ratioP2;P2;SDS_P1;SDS_P2;PMS_P1;PMS_P2;Temp;Humidity;BMP_temperature;BMP_pressure;BME280_temperature;BME280_humidity;BME280_pressure;Samples;Min_cycle;Max_cycle;Signal;HPM_P1;HPM_P2
2023/02/12 00:00:11;;;;;;;62.53;33.97;;;;;;;4.97;100.00;102940.88;696567;28;1329;-68
2023/02/12 00:00:40;;;;;;;62.78;33.95;;;;;;;4.95;100.00;102945.97;694412;28;4298;-68
2023/02/12 00:01:00;;;;;;;60.70;34.03;;;;;;;4.95;100.00;102943.38;693303;28;1242;-69
2023/02/12 00:01:23;;;;;;;61.38;34.25;;;;;;;4.96;100.00;102947.75;694878;28;1238;-67
2023/02/12 00:01:43;;;;;;;61.78;34.22;;;;;;;4.94;100.00;102945.09;694087;28;1622;-66
2023/02/12 00:02:04;;;;;;;62.03;34.50;;;;;;;4.95;100.00;102948.56;694165;28;1536;-69
2023/02/12 00:02:24;;;;;;;63.05;34.33;;;;;;;4.96;100.00;102952.94;695249;28;1178;-68
2023/02/12 00:02:44;;;;;;;63.53;35.07;;;;;;;4.94;100.00;102947.69;692270;28;1384;-68
2023/02/12 00:03:07;;;;;;;62.08;34.45;;;;;;;4.95;100.00;102951.16;695735;28;1261;-66
2023/02/12 00:03:28;;;;;;;62.28;34.63;;;;;;;4.94;100.00;102944.16;695893;28;804;-68
2023/02/12 00:03:49;;;;;;;63.97;34.20;;;;;;;4.96;100.00;102952.94;691401;28;4578;-68
2023/02/12 00:04:09;;;;;;;63.28;34.38;;;;;;;4.95;100.00;102945.97;692368;28;2711;-68
2023/02/12 00:04:30;;;;;;;63.95;34.97;;;;;;;4.96;100.00;102947.75;693712;28;1154;-69
2023/02/12 00:04:51;;;;;;;65.10;34.77;;;;;;;4.98;100.00;102950.44;694663;28;1285;-68
2023/02/12 00:05:11;;;;;;;63.70;34.53;;;;;;;5.00;100.00;102947.13;695146;28;1173;-67
2023/02/12 00:05:36;;;;;;;63.58;35.28;;;;;;;5.01;100.00;102956.69;695450;28;1489;-67
2023/02/12 00:05:59;;;;;;;63.45;34.85;;;;;;;5.03;100.00;102951.59;694110;28;1897;-66
2023/02/12 00:06:20;;;;;;;63.53;34.35;;;;;;;5.03;100.00;102952.47;693679;28;2088;-69
2023/02/12 00:06:40;;;;;;;58.03;33.55;;;;;;;5.03;100.00;102942.09;694796;28;4415;-68
2023/02/12 00:07:01;;;;;;;56.33;32.67;;;;;;;5.04;100.00;102951.66;694796;28;1325;-67
2023/02/12 00:07:21;;;;;;;55.13;31.40;;;;;;;5.02;100.00;102945.50;695646;28;1309;-66
2023/02/12 00:07:42;;;;;;;57.93;33.70;;;;;;;5.02;100.00;102942.91;696228;28;1332;-68
2023/02/12 00:08:02;;;;;;;61.13;33.85;;;;;;;5.01;100.00;102940.22;695647;28;1345;-68
2023/02/12 00:08:23;;;;;;;59.77;33.13;;;;;;;5.01;100.00;102943.72;694597;28;2553;-67
2023/02/12 00:08:43;;;;;;;57.60;32.15;;;;;;;5.01;100.00;102946.31;695352;28;1296;-67
2023/02/12 00:09:04;;;;;;;58.57;33.07;;;;;;;5.02;100.00;102948.06;694217;28;1186;-68
2023/02/12 00:09:24;;;;;;;58.42;33.40;;;;;;;5.00;100.00;102949.72;694919;28;1432;-68
2023/02/12 00:09:44;;;;;;;61.42;33.78;;;;;;;5.00;100.00;102944.53;694740;28;4357;-68
2023/02/12 00:10:06;;;;;;;61.93;33.90;;;;;;;5.00;100.00;102947.13;694599;28;1609;-68
2023/02/12 00:10:26;;;;;;;61.38;34.17;;;;;;;5.00;100.00;102943.63;695119;28;1279;-68
2023/02/12 00:10:46;;;;;;;58.78;33.88;;;;;;;5.00;100.00;102944.53;695260;28;1907;-68
2023/02/12 00:11:12;;;;;;;55.33;32.50;;;;;;;5.01;100.00;102946.31;689376;28;2609;-68
2023/02/12 00:11:33;;;;;;;55.60;32.28;;;;;;;5.00;100.00;102949.72;690249;28;1207;-67
2023/02/12 00:11:53;;;;;;;54.17;32.10;;;;;;;5.01;100.00;102945.41;690734;28;1202;-68
2023/02/12 00:12:14;;;;;;;56.57;32.30;;;;;;;4.98;100.00;102948.72;690867;28;1217;-68
2023/02/12 00:12:34;;;;;;;60.63;33.08;;;;;;;4.99;100.00;102950.50;692321;28;1492;-68
2023/02/12 00:12:55;;;;;;;59.57;33.87;;;;;;;4.98;100.00;102943.53;691954;28;4225;-68
2023/02/12 00:13:15;;;;;;;59.53;32.97;;;;;;;4.98;100.00;102946.13;695228;28;1289;-68
2023/02/12 00:13:37;;;;;;;62.80;34.00;;;;;;;4.98;100.00;102945.25;694233;28;1205;-68
2023/02/12 00:13:57;;;;;;;58.05;33.58;;;;;;;4.97;100.00;102946.97;695696;28;1074;-68
2023/02/12 00:14:18;;;;;;;59.45;33.75;;;;;;;4.97;100.00;102948.63;694889;28;2471;-66
2023/02/12 00:14:39;;;;;;;58.50;33.07;;;;;;;4.96;100.00;102950.34;695119;28;1214;-68
2023/02/12 00:14:59;;;;;;;57.15;32.88;;;;;;;4.95;100.00;102946.84;693561;28;1311;-67
2023/02/12 00:15:20;;;;;;;55.73;31.73;;;;;;;4.93;100.00;102951.06;691318;28;1305;-68
2023/02/12 00:15:42;;;;;;;55.95;30.85;;;;;;;4.93;100.00;102955.38;690950;28;4775;-68
2023/02/12 00:16:10;;;;;;;59.42;32.20;;;;;;;4.92;100.00;102951.00;692298;28;1234;-70
2023/02/12 00:16:31;;;;;;;54.28;31.08;;;;;;;4.93;100.00;102950.19;692417;28;1333;-69
2023/02/12 00:16:51;;;;;;;56.47;31.48;;;;;;;4.93;100.00;102953.66;694720;28;1328;-68
2023/02/12 00:17:12;;;;;;;63.37;34.07;;;;;;;4.93;100.00;102952.78;695102;28;1265;-68
2023/02/12 00:17:32;;;;;;;58.67;34.10;;;;;;;4.93;100.00;102950.19;694865;28;1359;-68
2023/02/12 00:17:53;;;;;;;58.53;33.57;;;;;;;4.94;100.00;102949.34;696333;28;1277;-68
2023/02/12 00:18:14;;;;;;;61.95;34.08;;;;;;;4.94;100.00;102952.88;694622;28;1254;-68
2023/02/12 00:18:35;;;;;;;61.88;34.40;;;;;;;4.93;100.00;102948.47;694886;28;2761;-69
2023/02/12 00:18:57;;;;;;;62.17;34.08;;;;;;;4.94;100.00;102951.94;691745;28;4992;-68
2023/02/12 00:19:17;;;;;;;64.07;34.33;;;;;;;4.94;100.00;102949.34;691643;28;1195;-68
2023/02/12 00:19:38;;;;;;;60.92;33.67;;;;;;;4.93;100.00;102948.47;691198;28;1252;-68
2023/02/12 00:19:58;;;;;;;63.57;34.57;;;;;;;4.93;100.00;102961.44;689601;28;1305;-69
2023/02/12 00:20:19;;;;;;;60.87;34.20;;;;;;;4.94;100.00;102951.94;691064;28;1444;-67
2023/02/12 00:20:39;;;;;;;60.13;34.07;;;;;;;4.94;100.00;102958.03;693288;28;1222;-67
2023/02/12 00:21:00;;;;;;;59.60;33.85;;;;;;;4.95;100.00;102956.34;695244;28;1210;-68
2023/02/12 00:21:22;;;;;;;60.40;33.58;;;;;;;4.94;100.00;102952.88;695176;28;2999;-68
2023/02/12 00:21:42;;;;;;;59.42;33.10;;;;;;;4.95;100.00;102957.22;694144;28;4964;-69
2023/02/12 00:22:03;;;;;;;57.13;32.70;;;;;;;4.94;100.00;102957.13;697789;28;1246;-69
2023/02/12 00:22:23;;;;;;;55.08;31.90;;;;;;;4.93;100.00;102955.38;695909;28;1265;-68
2023/02/12 00:22:44;;;;;;;56.07;32.17;;;;;;;4.92;100.00;102951.88;694866;28;1227;-68
2023/02/12 00:23:05;;;;;;;59.25;32.28;;;;;;;4.93;100.00;102951.06;694014;28;4022;-68
2023/02/12 00:23:26;;;;;;;58.63;32.63;;;;;;;4.94;100.00;102950.28;694963;28;1416;-68
2023/02/12 00:23:47;;;;;;;57.92;33.00;;;;;;;4.93;100.00;102951.06;694539;28;1222;-68
2023/02/12 00:24:07;;;;;;;57.67;32.97;;;;;;;4.93;100.00;102956.25;695515;28;1538;-67
2023/02/12 00:24:28;;;;;;;60.10;33.57;;;;;;;4.92;100.00;102951.88;695291;28;2640;-68
2023/02/12 00:24:48;;;;;;;59.42;33.45;;;;;;;4.92;100.00;102956.16;692394;28;4549;-67
2023/02/12 00:25:09;;;;;;;58.70;33.57;;;;;;;4.92;100.00;102954.47;692720;28;1150;-68
2023/02/12 00:25:29;;;;;;;63.15;34.42;;;;;;;4.92;100.00;102951.88;692943;28;1270;-68
2023/02/12 00:25:50;;;;;;;63.67;34.35;;;;;;;4.93;100.00;102948.47;692232;28;1218;-68
2023/02/12 00:26:13;;;;;;;62.27;34.67;;;;;;;4.94;100.00;102951.94;693144;28;1265;-69
2023/02/12 00:26:39;;;;;;;63.15;33.72;;;;;;;4.95;100.00;102949.44;690545;28;5420;-68
2023/02/12 00:27:00;;;;;;;60.72;33.88;;;;;;;4.97;100.00;102951.22;692120;28;2726;-68
2023/02/12 00:27:20;;;;;;;61.70;34.33;;;;;;;4.95;100.00;102951.16;693848;28;1250;-68
2023/02/12 00:27:41;;;;;;;62.30;33.92;;;;;;;4.94;100.00;102945.09;692964;28;4597;-67
2023/02/12 00:28:02;;;;;;;58.58;33.42;;;;;;;4.94;100.00;102949.34;695338;28;1281;-68
2023/02/12 00:28:23;;;;;;;62.13;33.83;;;;;;;4.94;100.00;102951.94;689721;28;1583;-68
2023/02/12 00:28:43;;;;;;;60.80;34.05;;;;;;;4.93;100.00;102955.38;689769;28;1532;-66
2023/02/12 00:29:04;;;;;;;58.53;33.30;;;;;;;4.92;100.00;102948.41;689365;28;1266;-68
2023/02/12 00:29:24;;;;;;;58.42;32.67;;;;;;;4.91;100.00;102944.91;690159;28;1155;-69
2023/02/12 00:29:45;;;;;;;57.72;32.45;;;;;;;4.92;100.00;102948.41;689819;28;2878;-69
2023/02/12 00:30:06;;;;;;;58.67;32.63;;;;;;;4.91;100.00;102951.78;689847;28;1515;-68
2023/02/12 00:30:26;;;;;;;59.70;33.35;;;;;;;4.91;100.00;102947.47;690323;28;1397;-69
2023/02/12 00:30:49;;;;;;;54.40;30.85;;;;;;;4.92;100.00;102945.81;687448;28;4299;-68
2023/02/12 00:31:23;;;;;;;53.72;30.58;;;;;;;4.93;100.00;102947.59;688230;28;1252;-68
2023/02/12 00:31:44;;;;;;;54.60;30.90;;;;;;;4.92;100.00;102946.69;690331;28;1030;-67
2023/02/12 00:32:04;;;;;;;57.00;32.23;;;;;;;4.93;100.00;102948.47;692932;28;1327;-68
2023/02/12 00:32:25;;;;;;;60.05;32.78;;;;;;;4.94;100.00;102958.03;691859;28;1481;-67
2023/02/12 00:32:46;;;;;;;58.42;32.53;;;;;;;4.93;100.00;102953.66;695288;28;1461;-68
2023/02/12 00:33:06;;;;;;;59.17;32.50;;;;;;;4.94;100.00;102944.16;695689;28;1253;-68
2023/02/12 00:33:27;;;;;;;59.55;32.95;;;;;;;4.94;100.00;102949.34;693031;28;2506;-69
2023/02/12 00:33:47;;;;;;;59.72;33.00;;;;;;;4.95;100.00;102948.56;692683;28;4594;-68
2023/02/12 00:34:09;;;;;;;59.87;33.20;;;;;;;4.95;100.00;102951.16;693452;28;1792;-68
2023/02/12 00:34:29;;;;;;;60.95;32.78;;;;;;;4.94;100.00;102950.28;692661;28;907;-68
2023/02/12 00:34:49;;;;;;;59.97;33.03;;;;;;;4.94;100.00;102950.28;693115;28;948;-66
2023/02/12 00:35:10;;;;;;;58.33;32.67;;;;;;;4.94;100.00;102957.13;693691;28;1553;-67
2023/02/12 00:35:30;;;;;;;57.55;33.45;;;;;;;4.93;100.00;102950.19;695822;28;1254;-69
2023/02/12 00:35:57;;;;;;;57.47;32.27;;;;;;;4.95;100.00;102956.34;694484;28;1621;-68
2023/02/12 00:36:20;;;;;;;56.38;32.10;;;;;;;4.94;100.00;102955.47;695115;28;5478;-68
2023/02/12 00:36:41;;;;;;;55.67;31.80;;;;;;;4.95;100.00;102948.56;691413;28;6467;-69
2023/02/12 00:37:01;;;;;;;56.27;32.00;;;;;;;4.96;100.00;102952.94;691904;28;2676;-68
2023/02/12 00:37:22;;;;;;;58.35;32.25;;;;;;;4.96;100.00;102955.53;690736;28;2609;-68
2023/02/12 00:37:42;;;;;;;60.83;33.23;;;;;;;4.96;100.00;102958.13;690698;28;1520;-68
2023/02/12 00:38:03;;;;;;;58.42;32.85;;;;;;;4.96;100.00;102958.13;690441;28;1261;-69
2023/02/12 00:38:23;;;;;;;55.93;31.90;;;;;;;4.96;100.00;102952.94;692404;28;2607;-69
2023/02/12 00:38:45;;;;;;;59.72;32.42;;;;;;;4.96;100.00;102958.13;694713;28;1822;-67
2023/02/12 00:39:05;;;;;;;57.65;32.13;;;;;;;4.95;100.00;102957.22;694327;28;1257;-67
2023/02/12 00:39:26;;;;;;;53.00;31.08;;;;;;;4.94;100.00;102951.94;694492;28;1430;-69
2023/02/12 00:39:46;;;;;;;52.97;30.80;;;;;;;4.93;100.00;102947.59;694769;28;4450;-68
2023/02/12 00:40:07;;;;;;;54.23;31.40;;;;;;;4.92;100.00;102951.88;698106;28;1284;-68
2023/02/12 00:40:27;;;;;;;56.30;31.77;;;;;;;4.93;100.00;102955.38;694522;28;1309;-68
2023/02/12 00:40:48;;;;;;;58.07;31.97;;;;;;;4.92;100.00;102953.59;694954;28;1420;-68
2023/02/12 00:41:09;;;;;;;59.78;32.65;;;;;;;4.91;100.00;102957.84;695493;28;1389;-68
2023/02/12 00:41:29;;;;;;;56.85;32.65;;;;;;;4.92;100.00;102951.00;692310;28;1269;-68
2023/02/12 00:41:50;;;;;;;59.10;32.75;;;;;;;4.91;100.00;102955.25;688862;28;5259;-67
2023/02/12 00:42:11;;;;;;;58.17;32.53;;;;;;;4.92;100.00;102953.59;691973;28;1151;-68
2023/02/12 00:42:31;;;;;;;58.15;32.45;;;;;;;4.92;100.00;102956.16;691485;28;3091;-66
2023/02/12 00:42:52;;;;;;;58.50;32.33;;;;;;;4.91;100.00;102959.56;689619;28;4451;-68
2023/02/12 00:43:13;;;;;;;54.60;30.87;;;;;;;4.91;100.00;102955.25;690921;28;1310;-67
2023/02/12 00:43:33;;;;;;;56.65;31.98;;;;;;;4.91;100.00;102950.06;690505;28;1265;-66
2023/02/12 00:43:54;;;;;;;57.80;32.45;;;;;;;4.91;100.00;102950.06;689890;28;1310;-67
2023/02/12 00:44:15;;;;;;;58.20;32.60;;;;;;;4.90;100.00;102955.19;690122;28;1393;-68
2023/02/12 00:44:35;;;;;;;61.63;34.03;;;;;;;4.89;100.00;102954.31;687815;28;1255;-68
2023/02/12 00:44:56;;;;;;;58.08;33.47;;;;;;;4.89;100.00;102954.31;690221;28;1223;-68
2023/02/12 00:45:17;;;;;;;58.93;33.50;;;;;;;4.89;100.00;102946.53;689877;28;1332;-69
2023/02/12 00:45:37;;;;;;;59.22;32.92;;;;;;;4.88;100.00;102951.63;687087;28;4359;-68
2023/02/12 00:45:58;;;;;;;59.03;32.80;;;;;;;4.89;100.00;102956.00;688152;28;2704;-68
2023/02/12 00:46:20;;;;;;;62.38;33.75;;;;;;;4.87;100.00;102949.84;689606;28;5095;-68
2023/02/12 00:46:41;;;;;;;61.50;34.00;;;;;;;4.87;100.00;102952.44;692259;28;1183;-68
2023/02/12 00:47:02;;;;;;;59.03;32.25;;;;;;;4.88;100.00;102951.63;690720;28;1285;-68
2023/02/12 00:47:23;;;;;;;55.58;31.85;;;;;;;4.88;100.00;102954.22;687893;28;1414;-68
2023/02/12 00:47:43;;;;;;;55.88;32.22;;;;;;;4.88;100.00;102949.03;687108;28;1286;-68
2023/02/12 00:48:04;;;;;;;59.00;32.00;;;;;;;4.88;100.00;102946.44;687496;28;1349;-68
2023/02/12 00:48:24;;;;;;;57.80;32.17;;;;;;;4.88;100.00;102949.91;687949;28;1214;-68
2023/02/12 00:48:45;;;;;;;59.30;33.05;;;;;;;4.87;100.00;102936.88;689518;28;4900;-69
2023/02/12 00:49:05;;;;;;;55.90;32.23;;;;;;;4.87;100.00;102953.31;692045;28;3023;-69
2023/02/12 00:49:26;;;;;;;54.53;31.33;;;;;;;4.87;100.00;102939.47;694755;28;1427;-68
2023/02/12 00:49:46;;;;;;;57.57;32.37;;;;;;;4.87;100.00;102947.25;695838;28;1455;-69
2023/02/12 00:50:07;;;;;;;57.50;32.55;;;;;;;4.88;100.00;102949.03;695176;28;1325;-69
2023/02/12 00:50:27;;;;;;;60.75;32.58;;;;;;;4.87;100.00;102945.53;695609;28;1376;-67
2023/02/12 00:50:48;;;;;;;63.60;33.53;;;;;;;4.87;100.00;102948.13;695751;28;1967;-68
2023/02/12 00:51:09;;;;;;;61.55;33.10;;;;;;;4.88;100.00;102944.72;693064;28;1382;-68
2023/02/12 00:51:29;;;;;;;60.95;34.15;;;;;;;4.88;100.00;102947.31;693138;28;1338;-68
2023/02/12 00:51:50;;;;;;;59.13;34.03;;;;;;;4.88;100.00;102942.13;692130;28;4292;-67
2023/02/12 00:52:10;;;;;;;58.80;32.87;;;;;;;4.88;100.00;102944.72;693853;28;1275;-68
2023/02/12 00:52:31;;;;;;;56.17;32.00;;;;;;;4.89;100.00;102951.72;694598;28;1218;-68
2023/02/12 00:52:51;;;;;;;58.67;32.17;;;;;;;4.90;100.00;102944.81;694774;28;1289;-68
2023/02/12 00:53:13;;;;;;;59.53;32.63;;;;;;;4.89;100.00;102951.72;695409;28;2604;-67
2023/02/12 00:53:34;;;;;;;56.92;32.05;;;;;;;4.90;100.00;102950.00;695539;28;1051;-68
2023/02/12 00:53:54;;;;;;;58.05;32.50;;;;;;;4.90;100.00;102950.00;692744;28;1238;-68
2023/02/12 00:54:15;;;;;;;58.47;32.63;;;;;;;4.90;100.00;102952.59;692308;28;1269;-68
2023/02/12 00:54:35;;;;;;;55.97;31.97;;;;;;;4.90;100.00;102944.81;689021;28;5046;-68
2023/02/12 00:54:56;;;;;;;55.08;30.48;;;;;;;4.90;100.00;102947.41;689451;28;1286;-68
2023/02/12 00:55:16;;;;;;;53.73;30.30;;;;;;;4.90;100.00;102944.81;690161;28;1334;-69
2023/02/12 00:55:37;;;;;;;54.15;30.83;;;;;;;4.90;100.00;102947.41;690455;28;1247;-68
2023/02/12 00:55:58;;;;;;;56.05;31.48;;;;;;;4.91;100.00;102949.19;692637;28;2562;-68
2023/02/12 00:56:18;;;;;;;55.10;31.03;;;;;;;4.91;100.00;102949.19;692077;28;1262;-68
2023/02/12 00:56:42;;;;;;;55.95;31.08;;;;;;;4.90;100.00;102944.81;692612;28;4756;-67
2023/02/12 00:57:02;;;;;;;56.10;31.08;;;;;;;4.91;100.00;102949.19;693251;28;1256;-68
2023/02/12 00:57:23;;;;;;;56.00;30.93;;;;;;;4.90;100.00;102947.41;693480;28;1197;-68
2023/02/12 00:57:43;;;;;;;53.43;30.20;;;;;;;4.89;100.00;102946.53;689948;28;4503;-69
2023/02/12 00:58:04;;;;;;;51.50;29.97;;;;;;;4.88;100.00;102952.50;689998;28;1250;-68
2023/02/12 00:58:25;;;;;;;52.78;29.85;;;;;;;4.87;100.00;102948.13;690676;28;1380;-68
2023/02/12 00:58:45;;;;;;;50.70;30.25;;;;;;;4.86;100.00;102942.84;692426;28;1436;-68
2023/02/12 00:59:06;;;;;;;51.92;30.23;;;;;;;4.87;100.00;102942.06;689873;28;1199;-68
2023/02/12 00:59:27;;;;;;;53.13;30.50;;;;;;;4.87;100.00;102947.25;690623;28;1441;-69
2023/02/12 00:59:48;;;;;;;53.42;30.10;;;;;;;4.87;100.00;102935.16;692758;28;1808;-71
2023/02/12 01:00:12;;;;;;;55.78;30.13;;;;;;;4.89;100.00;102945.66;693001;28;1190;-68
2023/02/12 01:00:33;;;;;;;55.85;31.52;;;;;;;4.88;100.00;102943.84;693406;28;1320;-67
2023/02/12 01:00:54;;;;;;;55.92;31.92;;;;;;;4.88;100.00;102946.44;695242;28;4798;-68
2023/02/12 01:01:17;;;;;;;55.00;31.10;;;;;;;4.88;100.00;102942.13;695781;28;1321;-69
2023/02/12 01:01:37;;;;;;;53.35;30.10;;;;;;;4.88;100.00;102939.53;696286;28;1312;-68
2023/02/12 01:01:58;;;;;;;55.63;31.80;;;;;;;4.88;100.00;102933.47;695362;28;1341;-68
2023/02/12 01:02:18;;;;;;;58.47;33.00;;;;;;;4.88;100.00;102936.06;693006;28;1309;-68
2023/02/12 01:02:40;;;;;;;57.55;32.00;;;;;;;4.89;100.00;102940.47;690507;28;1341;-69
2023/02/12 01:03:01;;;;;;;55.37;31.37;;;;;;;4.87;100.00;102935.16;690936;28;1304;-69
2023/02/12 01:03:22;;;;;;;54.60;31.00;;;;;;;4.87;100.00;102942.06;688514;28;2568;-68
2023/02/12 01:03:42;;;;;;;54.20;30.83;;;;;;;4.88;100.00;102938.66;689226;28;5010;-68
2023/02/12 01:04:03;;;;;;;54.93;31.70;;;;;;;4.88;100.00;102939.53;689337;28;1318;-69
2023/02/12 01:04:23;;;;;;;57.10;32.30;;;;;;;4.88;100.00;102936.06;691506;28;1476;-66
2023/02/12 01:04:44;;;;;;;55.20;32.28;;;;;;;4.88;100.00;102939.53;692671;28;1688;-68
2023/02/12 01:05:04;;;;;;;56.37;32.53;;;;;;;4.88;100.00;102943.84;691196;28;1445;-68
2023/02/12 01:05:25;;;;;;;55.75;32.03;;;;;;;4.86;100.00;102943.78;693393;28;1300;-69
2023/02/12 01:05:46;;;;;;;54.92;31.13;;;;;;;4.86;100.00;102948.03;693836;28;1195;-67
2023/02/12 01:06:06;;;;;;;54.93;30.33;;;;;;;4.86;100.00;102940.25;693319;28;1222;-68
2023/02/12 01:06:27;;;;;;;52.80;30.10;;;;;;;4.87;100.00;102945.53;689772;28;1475;-68
2023/02/12 01:06:47;;;;;;;53.40;30.33;;;;;;;4.88;100.00;102944.72;691368;28;4681;-67
2023/02/12 01:07:08;;;;;;;50.88;30.63;;;;;;;4.89;100.00;102937.88;691232;28;2641;-68
2023/02/12 01:07:29;;;;;;;53.20;30.50;;;;;;;4.89;100.00;102946.53;691568;28;1361;-67
2023/02/12 01:07:51;;;;;;;53.45;31.02;;;;;;;4.87;100.00;102945.53;691065;28;1511;-68
2023/02/12 01:08:14;;;;;;;55.33;31.65;;;;;;;4.88;100.00;102944.72;689790;28;1372;-67
2023/02/12 01:08:34;;;;;;;58.78;32.50;;;;;;;4.89;100.00;102945.66;690455;28;1593;-69
2023/02/12 01:08:55;;;;;;;56.33;32.13;;;;;;;4.89;100.00;102949.13;692078;28;1283;-66
2023/02/12 01:09:16;;;;;;;56.50;32.50;;;;;;;4.88;100.00;102942.13;691945;28;1254;-68
2023/02/12 01:09:36;;;;;;;54.35;31.20;;;;;;;4.88;100.00;102942.13;691596;28;4554;-68
2023/02/12 01:10:00;;;;;;;56.72;31.80;;;;;;;4.88;100.00;102944.72;692671;28;2874;-69
2023/02/12 01:10:23;;;;;;;59.55;33.05;;;;;;;4.88;100.00;102964.59;692551;28;4785;-69
2023/02/12 01:10:44;;;;;;;58.00;32.70;;;;;;;4.88;100.00;102946.44;691668;28;1997;-68
2023/02/12 01:11:04;;;;;;;57.80;32.28;;;;;;;4.87;100.00;102939.47;690082;28;1307;-68
2023/02/12 01:11:25;;;;;;;59.13;32.63;;;;;;;4.87;100.00;102947.25;688850;28;1239;-68
2023/02/12 01:11:46;;;;;;;54.03;31.73;;;;;;;4.86;100.00;102941.19;687389;28;1254;-68
2023/02/12 01:12:07;;;;;;;52.73;30.70;;;;;;;4.85;100.00;102941.97;687618;28;1628;-68
2023/02/12 01:12:27;;;;;;;52.45;30.05;;;;;;;4.85;100.00;102941.97;689439;28;2453;-67
2023/02/12 01:12:48;;;;;;;52.23;29.90;;;;;;;4.84;100.00;102942.78;691487;28;4445;-68
2023/02/12 01:13:14;;;;;;;54.95;30.98;;;;;;;4.85;100.00;102938.50;694709;28;1190;-66
2023/02/12 01:13:34;;;;;;;56.60;32.83;;;;;;;4.83;100.00;102937.50;692483;28;5111;-68
2023/02/12 01:13:55;;;;;;;59.67;33.08;;;;;;;4.83;100.00;102937.50;694957;28;1244;-69
2023/02/12 01:14:15;;;;;;;61.93;32.97;;;;;;;4.84;100.00;102939.31;692500;28;1190;-68
2023/02/12 01:14:36;;;;;;;54.70;31.75;;;;;;;4.84;100.00;102939.31;695259;28;1169;-68
2023/02/12 01:14:57;;;;;;;51.60;30.05;;;;;;;4.84;100.00;102949.66;693656;28;1432;-68
2023/02/12 01:15:18;;;;;;;52.60;29.63;;;;;;;4.83;100.00;102935.84;691765;28;2765;-68
2023/02/12 01:15:40;;;;;;;56.10;31.38;;;;;;;4.84;100.00;102936.72;692295;28;4442;-69
2023/02/12 01:16:22;;;;;;;56.83;32.17;;;;;;;4.83;100.00;102940.09;694614;28;1226;-68
2023/02/12 01:16:43;;;;;;;57.20;33.85;;;;;;;4.81;100.00;102945.19;696565;28;5470;-66
2023/02/12 01:17:07;;;;;;;58.88;32.42;;;;;;;4.82;100.00;102944.41;698086;28;1304;-68
2023/02/12 01:17:28;;;;;;;57.20;31.80;;;;;;;4.83;100.00;102940.09;695078;28;4624;-68
2023/02/12 01:17:52;;;;;;;53.17;30.93;;;;;;;4.84;100.00;102936.72;694482;28;1427;-68
2023/02/12 01:18:15;;;;;;;53.40;30.73;;;;;;;4.84;100.00;102936.72;695032;28;5375;-68
2023/02/12 01:18:36;;;;;;;52.17;30.33;;;;;;;4.83;100.00;102932.31;694175;28;5384;-66
2023/02/12 01:18:56;;;;;;;54.08;31.35;;;;;;;4.84;100.00;102940.19;694211;28;2782;-68
2023/02/12 01:19:17;;;;;;;56.03;32.55;;;;;;;4.83;100.00;102933.25;693166;28;3771;-68
2023/02/12 01:19:38;;;;;;;53.27;31.60;;;;;;;4.83;100.00;102937.50;692549;28;1251;-68
2023/02/12 01:19:58;;;;;;;53.07;30.90;;;;;;;4.82;100.00;102935.72;688940;28;1415;-69
2023/02/12 01:20:21;;;;;;;51.92;31.05;;;;;;;4.80;100.00;102933.03;687144;28;1336;-66
2023/02/12 01:20:42;;;;;;;51.22;30.25;;;;;;;4.81;100.00;102931.38;686502;28;4592;-68
2023/02/12 01:21:14;;;;;;;53.28;30.25;;;;;;;4.81;100.00;102933.97;687336;28;1453;-68
2023/02/12 01:21:34;;;;;;;58.05;32.58;;;;;;;4.80;100.00;102927.88;687885;28;5328;-69
2023/02/12 01:21:55;;;;;;;58.95;33.20;;;;;;;4.81;100.00;102936.56;690114;28;4331;-69
2023/02/12 01:22:15;;;;;;;58.30;33.03;;;;;;;4.80;100.00;102930.44;691286;28;1251;-69
2023/02/12 01:22:37;;;;;;;55.20;32.30;;;;;;;4.80;100.00;102934.75;689425;28;1299;-69
2023/02/12 01:22:57;;;;;;;59.78;33.97;;;;;;;4.80;100.00;102921.81;688085;28;1267;-68
2023/02/12 01:23:18;;;;;;;57.57;33.00;;;;;;;4.78;100.00;102927.78;687220;28;2845;-68
2023/02/12 01:23:39;;;;;;;56.95;32.65;;;;;;;4.80;100.00;102929.56;689405;28;1250;-68
2023/02/12 01:24:01;;;;;;;57.70;33.05;;;;;;;4.79;100.00;102936.47;690560;28;1266;-68
2023/02/12 01:24:21;;;;;;;61.00;33.92;;;;;;;4.77;100.00;102931.16;688242;28;1691;-67
2023/02/12 01:24:42;;;;;;;57.53;32.80;;;;;;;4.78;100.00;102929.50;685145;28;4464;-67
2023/02/12 01:25:04;;;;;;;55.20;31.67;;;;;;;4.80;100.00;102934.75;686754;28;1444;-68
2023/02/12 01:25:25;;;;;;;53.30;31.30;;;;;;;4.79;100.00;102931.28;684827;28;5249;-67
2023/02/12 01:25:45;;;;;;;57.20;32.40;;;;;;;4.79;100.00;102931.28;686456;28;1412;-69
2023/02/12 01:26:09;;;;;;;58.03;32.72;;;;;;;4.77;100.00;102931.16;683372;28;2475;-67
2023/02/12 01:26:30;;;;;;;54.58;30.75;;;;;;;4.78;100.00;102926.91;687294;28;5200;-69
2023/02/12 01:26:50;;;;;;;59.40;32.30;;;;;;;4.77;100.00;102935.47;687707;28;1534;-68
2023/02/12 01:27:11;;;;;;;57.67;32.90;;;;;;;4.77;100.00;102931.16;691280;28;1296;-68
2023/02/12 01:27:32;;;;;;;55.78;32.55;;;;;;;4.77;100.00;102933.75;692166;28;1265;-68
2023/02/12 01:27:53;;;;;;;57.47;32.75;;;;;;;4.77;100.00;102936.34;692758;28;4402;-68
2023/02/12 01:28:13;;;;;;;59.08;32.95;;;;;;;4.77;100.00;102935.47;694458;28;1327;-68
2023/02/12 01:28:34;;;;;;;56.60;31.77;;;;;;;4.77;100.00;102935.47;694857;28;1269;-67
2023/02/12 01:28:58;;;;;;;57.42;32.25;;;;;;;4.78;100.00;102932.09;695113;28;1292;-68
2023/02/12 01:29:18;;;;;;;54.88;32.03;;;;;;;4.79;100.00;102933.88;694612;28;5190;-68
2023/02/12 01:29:39;;;;;;;58.03;32.77;;;;;;;4.80;100.00;102938.22;691227;28;3968;-68
2023/02/12 01:29:59;;;;;;;58.28;32.97;;;;;;;4.80;100.00;102934.75;689700;28;3649;-67
2023/02/12 01:30:22;;;;;;;57.83;33.00;;;;;;;4.80;100.00;102934.75;689351;28;2532;-68
2023/02/12 01:30:45;;;;;;;53.60;31.98;;;;;;;4.80;100.00;102935.63;691447;28;5214;-68
2023/02/12 01:31:17;;;;;;;55.35;32.20;;;;;;;4.80;100.00;102932.16;692879;28;1215;-67
2023/02/12 01:31:38;;;;;;;54.13;32.00;;;;;;;4.78;100.00;102932.09;693749;28;1557;-68
2023/02/12 01:31:58;;;;;;;59.08;33.63;;;;;;;4.77;100.00;102936.34;692162;28;1321;-68
2023/02/12 01:32:20;;;;;;;61.50;32.65;;;;;;;4.76;100.00;102929.41;692110;28;1421;-67
2023/02/12 01:32:40;;;;;;;56.33;31.20;;;;;;;4.76;100.00;102938.88;689191;28;1301;-68
2023/02/12 01:33:01;;;;;;;50.90;30.40;;;;;;;4.76;100.00;102932.00;686857;28;1652;-66
2023/02/12 01:33:21;;;;;;;50.40;30.88;;;;;;;4.76;100.00;102934.59;686430;28;2485;-68
2023/02/12 01:33:42;;;;;;;53.17;31.07;;;;;;;4.75;100.00;102935.41;686133;28;4367;-67
2023/02/12 01:34:06;;;;;;;56.47;32.45;;;;;;;4.74;100.00;102938.78;684096;28;1327;-68
2023/02/12 01:34:26;;;;;;;59.92;32.60;;;;;;;4.74;100.00;102931.00;686498;28;4713;-69
2023/02/12 01:34:47;;;;;;;59.87;32.83;;;;;;;4.75;100.00;102937.97;689762;28;1234;-68
2023/02/12 01:35:08;;;;;;;61.35;34.05;;;;;;;4.76;100.00;102939.78;689718;28;1187;-69
2023/02/12 01:35:29;;;;;;;59.13;33.30;;;;;;;4.76;100.00;102931.09;690371;28;1599;-67
2023/02/12 01:35:49;;;;;;;56.67;32.07;;;;;;;4.76;100.00;102933.69;688550;28;1167;-67
2023/02/12 01:36:10;;;;;;;56.70;31.93;;;;;;;4.76;100.00;102939.78;689000;28;2871;-68
2023/02/12 01:36:30;;;;;;;54.88;32.28;;;;;;;4.77;100.00;102935.47;691671;28;1250;-68
2023/02/12 01:36:51;;;;;;;55.00;31.02;;;;;;;4.75;100.00;102932.81;688171;28;4602;-68
2023/02/12 01:37:11;;;;;;;51.47;29.60;;;;;;;4.75;100.00;102937.09;689982;28;1196;-68
2023/02/12 01:37:36;;;;;;;51.92;31.20;;;;;;;4.76;100.00;102938.88;690116;28;1258;-68
2023/02/12 01:37:57;;;;;;;55.28;31.50;;;;;;;4.74;100.00;102938.78;693258;28;1274;-69
2023/02/12 01:38:19;;;;;;;55.05;32.67;;;;;;;4.75;100.00;102939.69;692375;28;1326;-67
2023/02/12 01:38:39;;;;;;;57.25;33.00;;;;;;;4.75;100.00;102939.69;691816;28;1243;-69